createdAt,value
2023-03-11T00:03:47.549Z,9.50
2023-03-11T00:08:50.392Z,9.34
2023-03-11T00:13:52.484Z,9.23
2023-03-11T00:18:54.675Z,9.21
2023-03-11T00:24:00.995Z,9.17
2023-03-11T00:29:03.303Z,9.18
2023-03-11T00:34:05.396Z,9.08
2023-03-11T00:39:07.534Z,9.06
2023-03-11T00:44:09.604Z,9.08
2023-03-11T00:49:11.714Z,9.18
2023-03-11T00:54:13.734Z,9.26
2023-03-11T00:59:15.777Z,9.29
2023-03-11T01:04:18.154Z,9.23
2023-03-11T01:09:20.416Z,9.20
2023-03-11T01:14:23.099Z,9.15
2023-03-11T01:19:25.209Z,9.12
2023-03-11T01:24:27.373Z,9.12
2023-03-11T01:29:29.462Z,8.99
2023-03-11T01:34:31.725Z,8.87
2023-03-11T01:39:33.882Z,8.82
2023-03-11T01:44:35.937Z,8.74
2023-03-11T01:49:42.004Z,8.62
2023-03-11T01:54:44.285Z,8.56
2023-03-11T01:59:52.153Z,8.62
2023-03-11T02:04:55.168Z,8.56
2023-03-11T02:09:57.553Z,8.78
2023-03-11T02:15:00.554Z,8.78
2023-03-11T02:20:47.307Z,8.87
2023-03-11T02:26:07.399Z,8.92
2023-03-11T02:31:10.463Z,8.88
2023-03-11T02:36:35.927Z,8.95
2023-03-11T02:41:41.790Z,8.99
2023-03-11T02:46:45.080Z,8.90
2023-03-11T02:51:47.354Z,8.93
2023-03-11T02:56:49.433Z,9.00
2023-03-11T03:01:51.550Z,8.98
2023-03-11T03:06:53.757Z,8.98
2023-03-11T03:11:56.288Z,8.90
2023-03-11T03:16:58.626Z,8.89
2023-03-11T03:22:00.763Z,8.93
2023-03-11T03:27:03.018Z,8.87
2023-03-11T03:32:05.492Z,8.83
2023-03-11T03:37:07.665Z,8.83
2023-03-11T03:42:09.727Z,8.98
2023-03-11T03:47:12.121Z,8.94
2023-03-11T03:52:15.089Z,8.99
2023-03-11T03:57:17.573Z,8.92
2023-03-11T04:02:19.779Z,8.93
2023-03-11T04:07:21.907Z,8.72
2023-03-11T04:12:24.314Z,8.67
2023-03-11T04:17:26.382Z,8.49
2023-03-11T04:22:28.465Z,8.48
2023-03-11T04:27:30.625Z,8.46
2023-03-11T04:32:32.774Z,8.29
2023-03-11T04:37:34.952Z,8.26
2023-03-11T04:42:37.241Z,8.08
2023-03-11T04:47:39.357Z,8.10
2023-03-11T04:52:41.590Z,7.92
2023-03-11T04:57:44.161Z,7.80
2023-03-11T05:02:46.199Z,7.58
2023-03-11T05:07:49.109Z,7.42
2023-03-11T05:12:52.383Z,7.38
2023-03-11T05:17:54.587Z,7.27
2023-03-11T05:22:56.665Z,7.16
2023-03-11T05:27:58.865Z,7.07
2023-03-11T05:33:00.886Z,6.94
2023-03-11T05:38:02.985Z,6.85
2023-03-11T05:43:05.059Z,6.83
2023-03-11T05:48:07.126Z,6.63
2023-03-11T05:53:09.176Z,6.59
2023-03-11T05:58:11.861Z,6.46
2023-03-11T06:03:13.953Z,6.48
2023-03-11T06:08:17.068Z,6.46
2023-03-11T06:13:19.752Z,6.28
2023-03-11T06:18:21.966Z,6.25
2023-03-11T06:23:24.121Z,6.15
2023-03-11T06:28:27.521Z,6.13
2023-03-11T06:33:29.592Z,6.29
2023-03-11T06:38:32.955Z,6.20
2023-03-11T06:43:35.739Z,6.28
2023-03-11T06:48:37.958Z,6.20
2023-03-11T06:53:40.114Z,6.25
2023-03-11T06:58:42.910Z,6.20
2023-03-11T07:03:46.548Z,6.36
2023-03-11T07:08:50.935Z,6.38
2023-03-11T07:13:54.916Z,6.23
2023-03-11T07:19:00.964Z,6.23
2023-03-11T07:24:04.070Z,5.98
2023-03-11T07:29:06.326Z,6.03
2023-03-11T07:34:14.162Z,5.91
2023-03-11T07:39:17.894Z,5.98
2023-03-11T07:44:21.192Z,6.07
2023-03-11T07:49:24.300Z,6.23
2023-03-11T07:54:26.446Z,6.65
2023-03-11T07:59:29.185Z,6.64
2023-03-11T08:04:31.271Z,6.69
2023-03-11T08:09:34.979Z,6.66
2023-03-11T08:14:37.198Z,6.73
2023-03-11T08:19:39.231Z,6.66
2023-03-11T08:24:41.370Z,6.80
2023-03-11T08:29:43.420Z,7.00
2023-03-11T08:34:45.573Z,7.07
2023-03-11T08:39:47.797Z,7.15
2023-03-11T08:44:50.002Z,6.75
2023-03-11T08:49:52.105Z,7.07
2023-03-11T08:54:54.158Z,7.28
2023-03-11T08:59:58.249Z,7.46
2023-03-11T09:05:00.454Z,7.60
2023-03-11T09:10:02.971Z,7.78
2023-03-11T09:15:06.281Z,7.51
2023-03-11T09:20:08.856Z,7.24
2023-03-11T09:25:12.973Z,7.11
2023-03-11T09:30:15.148Z,7.20
2023-03-11T09:35:17.302Z,6.97
2023-03-11T09:40:22.647Z,7.04
2023-03-11T09:45:30.692Z,6.79
2023-03-11T09:51:08.340Z,6.79
2023-03-11T09:56:17.398Z,7.10
2023-03-11T10:01:27.791Z,6.75
2023-03-11T10:06:31.848Z,6.87
2023-03-11T10:12:12.231Z,6.51
2023-03-11T10:17:32.742Z,6.60
2023-03-11T10:22:45.765Z,6.29
2023-03-11T10:27:57.271Z,6.11
2023-03-11T10:33:27.178Z,6.02
2023-03-11T10:38:46.602Z,6.03
2023-03-11T10:43:59.675Z,6.43
2023-03-11T10:49:01.938Z,6.98
2023-03-11T10:54:05.236Z,7.75
2023-03-11T10:59:31.714Z,7.78
2023-03-11T11:04:40.452Z,7.42
2023-03-11T11:09:42.522Z,7.75
2023-03-11T11:14:53.104Z,7.92
2023-03-11T11:19:58.141Z,8.27
2023-03-11T11:25:00.265Z,7.61
2023-03-11T11:30:18.292Z,7.31
2023-03-11T11:35:23.147Z,7.11
2023-03-11T11:40:33.014Z,7.13
2023-03-11T11:45:41.478Z,7.10
2023-03-11T11:50:53.950Z,7.29
2023-03-11T11:55:56.220Z,7.86
2023-03-11T12:01:08.461Z,8.26
2023-03-11T12:06:23.944Z,7.89
2023-03-11T12:11:42.055Z,7.54
2023-03-11T12:16:52.033Z,7.76
2023-03-11T12:22:20.381Z,9.61
2023-03-11T12:27:22.394Z,10.87
2023-03-11T12:32:41.953Z,18.49
2023-03-11T12:37:44.157Z,16.58
2023-03-11T12:42:46.266Z,14.89
2023-03-11T12:48:24.908Z,13.76
2023-03-11T12:53:48.122Z,15.20
2023-03-11T12:59:05.538Z,13.74
2023-03-11T13:04:39.725Z,9.88
2023-03-11T13:09:41.994Z,9.48
2023-03-11T13:14:44.146Z,8.73
2023-03-11T13:19:54.251Z,8.88
2023-03-11T13:24:56.325Z,8.91
2023-03-11T13:30:16.353Z,8.54
2023-03-11T13:35:32.604Z,10.59
2023-03-11T13:40:43.258Z,8.30
2023-03-11T13:46:16.067Z,7.65
2023-03-11T13:51:25.148Z,7.62
2023-03-11T13:56:32.093Z,15.69
2023-03-11T14:01:34.174Z,12.49
2023-03-11T14:06:36.262Z,9.04
2023-03-11T14:11:40.108Z,8.22
2023-03-11T14:16:44.483Z,8.85
2023-03-11T14:21:49.972Z,8.23
2023-03-11T14:26:57.355Z,8.14
2023-03-11T14:31:59.671Z,7.43
2023-03-11T14:37:04.036Z,7.58
2023-03-11T14:42:06.371Z,7.38
2023-03-11T14:47:55.730Z,14.28
2023-03-11T14:53:13.957Z,15.50
2023-03-11T14:58:34.623Z,15.80
2023-03-11T15:04:22.898Z,11.49
2023-03-11T15:09:26.390Z,9.25
2023-03-11T15:14:33.599Z,9.80
2023-03-11T15:19:35.783Z,10.53
2023-03-11T15:24:38.480Z,11.39
2023-03-11T15:29:53.069Z,10.48
2023-03-11T15:35:30.927Z,9.58
2023-03-11T15:40:44.897Z,8.16
2023-03-11T15:45:49.021Z,7.37
2023-03-11T15:50:59.830Z,7.42
2023-03-11T15:56:10.678Z,8.61
2023-03-11T16:01:12.804Z,7.37
2023-03-11T16:06:14.957Z,7.30
2023-03-11T16:11:18.806Z,7.51
2023-03-11T16:16:20.988Z,7.92
2023-03-11T16:21:29.757Z,7.12
2023-03-11T16:26:32.511Z,6.22
2023-03-11T16:31:35.115Z,5.84
2023-03-11T16:36:37.414Z,5.65
2023-03-11T16:41:44.575Z,5.51
2023-03-11T16:46:46.686Z,5.29
2023-03-11T16:51:48.841Z,5.27
2023-03-11T16:56:50.952Z,5.27
2023-03-11T17:01:53.078Z,5.25
2023-03-11T17:06:55.578Z,5.23
2023-03-11T17:11:58.025Z,5.12
2023-03-11T17:17:00.227Z,5.11
2023-03-11T17:22:02.521Z,5.05
2023-03-11T17:27:05.227Z,4.87
2023-03-11T17:32:08.065Z,4.72
2023-03-11T17:37:10.154Z,4.56
2023-03-11T17:42:12.495Z,4.31
2023-03-11T17:47:15.133Z,4.25
2023-03-11T17:52:17.468Z,4.31
2023-03-11T17:57:19.587Z,4.35
2023-03-11T18:02:21.985Z,4.37
2023-03-11T18:07:25.927Z,4.34
2023-03-11T18:12:28.025Z,4.34
2023-03-11T18:17:30.296Z,4.23
2023-03-11T18:22:35.177Z,4.22
2023-03-11T18:27:38.689Z,4.24
2023-03-11T18:32:41.155Z,4.31
2023-03-11T18:37:43.391Z,4.27
2023-03-11T18:42:45.491Z,4.16
2023-03-11T18:47:47.605Z,4.21
2023-03-11T18:52:53.031Z,4.17
2023-03-11T18:57:55.122Z,4.04
2023-03-11T19:02:57.208Z,4.08
2023-03-11T19:07:59.267Z,4.09
2023-03-11T19:13:01.371Z,3.97
2023-03-11T19:18:07.110Z,3.90
2023-03-11T19:23:09.759Z,3.89
2023-03-11T19:28:11.897Z,3.87
2023-03-11T19:33:14.592Z,3.93
2023-03-11T19:38:16.715Z,3.86
2023-03-11T19:43:19.441Z,3.86
2023-03-11T19:48:21.587Z,3.81
2023-03-11T19:53:23.837Z,3.57
2023-03-11T19:58:30.250Z,3.41
2023-03-11T20:03:33.016Z,3.19
2023-03-11T20:08:38.263Z,3.15
2023-03-11T20:13:43.823Z,3.04
2023-03-11T20:18:50.294Z,3.10
2023-03-11T20:23:54.537Z,3.00
2023-03-11T20:28:57.331Z,2.90
2023-03-11T20:33:59.879Z,2.93
2023-03-11T20:39:02.702Z,2.90
2023-03-11T20:44:07.498Z,2.77
2023-03-11T20:49:10.083Z,2.82
2023-03-11T20:54:12.297Z,2.81
2023-03-11T20:59:15.072Z,2.59
2023-03-11T21:04:17.530Z,2.61
2023-03-11T21:09:19.769Z,2.47
2023-03-11T21:14:21.999Z,2.40
2023-03-11T21:19:24.117Z,2.37
2023-03-11T21:24:26.334Z,2.42
2023-03-11T21:29:30.728Z,2.39
2023-03-11T21:34:33.150Z,2.26
2023-03-11T21:39:35.602Z,2.37
2023-03-11T21:44:37.805Z,2.24
2023-03-11T21:49:39.899Z,2.32
2023-03-11T21:54:42.069Z,2.34
2023-03-11T21:59:44.245Z,2.23
2023-03-11T22:04:46.532Z,2.32
2023-03-11T22:09:48.752Z,2.32
2023-03-11T22:14:50.955Z,2.24
2023-03-11T22:19:53.018Z,2.23
2023-03-11T22:24:55.125Z,2.27
2023-03-11T22:29:57.185Z,2.30
2023-03-11T22:34:59.793Z,2.18
2023-03-11T22:40:04.215Z,2.12
2023-03-11T22:45:07.979Z,2.19
2023-03-11T22:50:10.534Z,2.09
2023-03-11T22:55:12.710Z,2.10
2023-03-11T23:00:21.252Z,1.98
2023-03-11T23:05:23.951Z,1.87
2023-03-11T23:10:26.068Z,1.81
2023-03-11T23:15:28.306Z,1.83
2023-03-11T23:20:34.015Z,1.84
2023-03-11T23:25:36.242Z,1.79
2023-03-11T23:30:40.523Z,1.81
2023-03-11T23:35:43.074Z,1.73
2023-03-11T23:40:45.138Z,1.70
2023-03-11T23:45:47.220Z,1.79
2023-03-11T23:50:50.881Z,1.66
2023-03-11T23:55:53.478Z,1.60
